Terminal Aerodrome Forecast
Issued by NWS Blacksburg, VA

Current Version | Previous Version | Text Only | Print | Product List | Glossary Off
Versions: 1 2 3 4 5 6 7 8 9 10 11 12 13 14 15 16 17 18 19 20 21 22 23 24 25 26 27 28 29 30 31 32 33 34 35 36 37 38 39

000
FTUS41 KRNK 102334
TAFBLF
TAF
KBLF 102334Z 1100/1124 29012G22KT 5SM -SHSN OVC025
      TEMPO 1100/1104 2SM -SHSN OVC015
     FM111400 29011G20KT P6SM OVC035
     FM111800 30012G22KT P6SM BKN250=

USA.gov is the U.S. government's official web portal to all federal, state and local government web resources and services.